createdAt,value
2018-12-21T00:04:26.555Z," 8.19"
2018-12-21T00:09:21.913Z," 8.18"
2018-12-21T00:14:17.448Z," 8.09"
2018-12-21T00:19:13.228Z," 8.09"
2018-12-21T00:24:09.993Z," 7.97"
2018-12-21T00:29:05.592Z," 8.10"
2018-12-21T00:34:01.131Z," 8.10"
2018-12-21T00:38:56.969Z," 8.23"
2018-12-21T00:43:52.709Z," 8.19"
2018-12-21T00:48:48.504Z," 8.19"
2018-12-21T00:53:44.231Z," 8.10"
2018-12-21T00:58:40.731Z," 8.20"
2018-12-21T01:03:35.995Z," 8.28"
2018-12-21T01:08:32.046Z," 8.27"
2018-12-21T01:13:28.372Z," 8.20"
2018-12-21T01:23:24.573Z," 8.26"
2018-12-21T01:28:20.294Z," 8.30"
2018-12-21T01:33:16.645Z," 8.28"
2018-12-21T01:38:12.597Z," 8.26"
2018-12-21T01:43:09.633Z," 8.27"
2018-12-21T01:48:05.311Z," 8.28"
2018-12-21T01:53:01.728Z," 8.30"
2018-12-21T01:57:57.410Z," 8.30"
2018-12-21T02:02:53.067Z," 8.33"
2018-12-21T02:07:48.770Z," 8.26"
2018-12-21T02:12:44.625Z," 8.27"
2018-12-21T02:17:40.564Z," 8.38"
2018-12-21T02:22:36.942Z," 8.38"
2018-12-21T02:27:33.921Z," 8.36"
2018-12-21T02:32:29.399Z," 8.48"
2018-12-21T02:37:25.196Z," 8.34"
2018-12-21T02:42:20.844Z," 8.41"
2018-12-21T02:47:16.473Z," 8.48"
2018-12-21T02:52:12.230Z," 8.46"
2018-12-21T02:57:07.836Z," 8.53"
2018-12-21T03:02:04.623Z," 8.60"
2018-12-21T03:07:00.073Z," 8.56"
2018-12-21T03:11:55.878Z," 8.64"
2018-12-21T03:16:51.703Z," 8.61"
2018-12-21T03:21:48.015Z," 8.58"
2018-12-21T03:26:44.531Z," 8.58"
2018-12-21T03:31:40.220Z," 8.53"
2018-12-21T03:36:35.904Z," 8.51"
2018-12-21T03:41:31.584Z," 8.44"
2018-12-21T03:46:27.639Z," 8.34"
2018-12-21T03:51:24.183Z," 8.41"
2018-12-21T03:56:19.446Z," 8.45"
2018-12-21T04:01:15.181Z," 8.37"
2018-12-21T04:06:11.407Z," 8.44"
2018-12-21T04:11:06.775Z," 8.30"
2018-12-21T04:16:02.569Z," 8.36"
2018-12-21T04:20:59.675Z," 8.28"
2018-12-21T04:25:55.210Z," 8.33"
2018-12-21T04:30:51.935Z," 8.45"
2018-12-21T04:35:47.407Z," 8.37"
2018-12-21T04:40:43.119Z," 8.42"
2018-12-21T04:45:38.987Z," 8.63"
2018-12-21T04:50:35.293Z," 8.46"
2018-12-21T04:55:30.758Z," 8.46"
2018-12-21T05:00:26.413Z," 8.45"
2018-12-21T05:05:23.334Z," 8.61"
2018-12-21T05:10:18.901Z," 8.70"
2018-12-21T05:15:14.396Z," 8.67"
2018-12-21T05:20:10.109Z," 8.74"
2018-12-21T05:25:05.844Z," 8.71"
2018-12-21T05:30:01.617Z," 8.79"
2018-12-21T05:34:58.348Z," 8.81"
2018-12-21T05:39:53.950Z," 8.89"
2018-12-21T05:44:49.835Z," 8.84"
2018-12-21T05:49:46.516Z," 8.69"
2018-12-21T05:54:42.882Z," 8.63"
2018-12-21T05:59:38.697Z," 8.61"
2018-12-21T06:04:34.686Z," 8.66"
2018-12-21T06:09:31.556Z," 8.84"
2018-12-21T06:14:27.909Z," 8.76"
2018-12-21T06:19:23.955Z," 8.76"
2018-12-21T06:24:19.587Z," 8.73"
2018-12-21T06:29:15.515Z," 8.82"
2018-12-21T06:34:12.611Z," 8.76"
2018-12-21T06:39:09.140Z," 8.91"
2018-12-21T06:44:05.782Z," 8.76"
2018-12-21T06:49:02.081Z," 8.78"
2018-12-21T06:53:58.622Z," 8.73"
2018-12-21T06:58:54.547Z," 8.81"
2018-12-21T07:03:50.022Z," 8.71"
2018-12-21T07:08:46.638Z," 8.69"
2018-12-21T07:13:42.188Z," 8.64"
2018-12-21T07:18:38.742Z," 8.64"
2018-12-21T07:23:34.367Z," 8.61"
2018-12-21T07:28:30.977Z," 8.63"
2018-12-21T07:33:28.057Z," 8.56"
2018-12-21T07:38:23.265Z," 8.45"
2018-12-21T07:43:20.413Z," 8.44"
2018-12-21T07:48:16.647Z," 8.46"
2018-12-21T07:53:13.448Z," 8.46"
2018-12-21T07:58:08.998Z," 8.55"
2018-12-21T08:03:04.778Z," 8.49"
2018-12-21T08:08:00.213Z," 8.46"
2018-12-21T08:12:56.315Z," 8.49"
2018-12-21T08:17:52.103Z," 8.49"
2018-12-21T08:22:47.862Z," 8.55"
2018-12-21T08:27:44.600Z," 8.52"
2018-12-21T08:32:41.102Z," 8.56"
2018-12-21T08:37:36.805Z," 8.60"
2018-12-21T08:42:32.662Z," 8.70"
2018-12-21T08:47:28.972Z," 8.64"
2018-12-21T08:52:26.023Z," 8.76"
2018-12-21T08:57:21.778Z," 8.89"
2018-12-21T09:02:21.080Z," 8.97"
2018-12-21T09:07:16.291Z," 9.08"
2018-12-21T09:12:12.060Z," 9.06"
2018-12-21T09:17:07.761Z," 9.13"
2018-12-21T09:22:04.209Z," 9.18"
2018-12-21T09:27:00.849Z," 9.22"
2018-12-21T09:32:04.987Z," 9.31"
2018-12-21T09:36:57.025Z," 9.40"
2018-12-21T09:41:52.774Z," 9.32"
2018-12-21T09:46:48.385Z," 9.37"
2018-12-21T09:51:45.417Z," 9.43"
2018-12-21T09:56:41.124Z," 9.41"
2018-12-21T10:01:37.070Z," 9.43"
2018-12-21T10:06:32.660Z," 9.44"
2018-12-21T10:11:28.681Z," 9.50"
2018-12-21T10:16:24.672Z," 9.55"
2018-12-21T10:21:20.959Z," 9.58"
2018-12-21T10:26:17.773Z," 9.40"
2018-12-21T10:31:13.300Z," 9.50"
2018-12-21T10:36:08.897Z," 9.54"
2018-12-21T10:41:04.373Z," 9.48"
2018-12-21T10:46:00.224Z," 9.62"
2018-12-21T10:50:55.993Z," 9.65"
2018-12-21T10:55:51.632Z," 9.69"
2018-12-21T11:00:47.626Z," 9.79"
2018-12-21T11:05:43.378Z," 9.84"
2018-12-21T11:10:39.174Z," 9.86"
2018-12-21T11:15:35.061Z,10.04
2018-12-21T11:20:31.020Z,10.01
2018-12-21T11:25:26.909Z,10.05
2018-12-21T11:30:22.821Z,10.16
2018-12-21T11:35:19.250Z,10.25
2018-12-21T11:40:14.800Z,10.37
2018-12-21T11:45:10.871Z,10.51
2018-12-21T11:50:06.982Z,10.63
2018-12-21T11:55:03.005Z,10.74
2018-12-21T11:59:58.692Z,10.82
2018-12-21T12:04:55.277Z,10.78
2018-12-21T12:09:51.141Z,10.84
2018-12-21T12:14:46.727Z,11.02
2018-12-21T12:19:42.717Z,11.12
2018-12-21T12:24:39.525Z,11.08
2018-12-21T12:29:35.019Z,11.35
2018-12-21T12:34:32.185Z,11.52
2018-12-21T12:39:29.414Z,11.60
2018-12-21T12:44:24.801Z,11.68
2018-12-21T12:49:21.153Z,11.81
2018-12-21T12:54:16.721Z,11.84
2018-12-21T12:59:13.591Z,11.88
2018-12-21T13:04:10.671Z,12.07
2018-12-21T13:09:06.384Z,12.21
2018-12-21T13:14:02.617Z,12.21
2018-12-21T13:18:59.584Z,12.29
2018-12-21T13:23:56.557Z,12.36
2018-12-21T13:28:52.068Z,12.37
2018-12-21T13:33:48.866Z,12.45
2018-12-21T13:38:44.751Z,12.47
2018-12-21T13:43:40.432Z,12.40
2018-12-21T13:48:36.199Z,12.42
2018-12-21T13:53:31.566Z,12.42
2018-12-21T13:58:27.832Z,12.49
2018-12-21T14:03:24.307Z,12.43
2018-12-21T14:08:20.001Z,12.49
2018-12-21T14:13:15.739Z,12.61
2018-12-21T14:18:11.607Z,12.76
2018-12-21T14:23:07.232Z,12.64
2018-12-21T14:28:03.136Z,12.72
2018-12-21T14:32:58.950Z,12.75
2018-12-21T14:37:54.709Z,12.73
2018-12-21T14:42:51.431Z,12.75
2018-12-21T14:47:47.084Z,12.57
2018-12-21T14:52:42.735Z,12.61
2018-12-21T14:57:39.463Z,12.60
2018-12-21T15:02:36.077Z,12.62
2018-12-21T15:07:31.535Z,12.64
2018-12-21T15:12:27.459Z,12.53
2018-12-21T15:17:23.234Z,12.60
2018-12-21T15:22:19.194Z,12.75
2018-12-21T15:27:14.957Z,12.61
2018-12-21T15:32:11.710Z,12.60
2018-12-21T15:37:07.691Z,12.57
2018-12-21T15:42:03.414Z,12.72
2018-12-21T15:47:08.802Z,12.73
2018-12-21T15:51:59.355Z,12.60
2018-12-21T15:56:55.254Z,12.60
2018-12-21T16:01:51.951Z,12.60
2018-12-21T16:06:48.683Z,12.50
2018-12-21T16:11:45.614Z,12.53
2018-12-21T16:16:41.048Z,12.46
2018-12-21T16:21:36.896Z,12.40
2018-12-21T16:26:33.994Z,12.40
2018-12-21T16:31:29.788Z,12.45
2018-12-21T16:36:26.266Z,12.24
2018-12-21T16:41:21.900Z,12.20
2018-12-21T16:46:17.714Z,12.07
2018-12-21T16:51:14.670Z,12.02
2018-12-21T16:56:12.595Z,12.10
2018-12-21T17:01:08.837Z,11.94
2018-12-21T17:06:05.242Z,11.91
2018-12-21T17:11:00.766Z,11.90
2018-12-21T17:15:57.409Z,11.80
2018-12-21T17:20:53.556Z,11.72
2018-12-21T17:25:49.413Z,11.69
2018-12-21T17:30:45.693Z,11.62
2018-12-21T17:35:41.128Z,11.52
2018-12-21T17:40:36.960Z,11.43
2018-12-21T17:45:32.746Z,11.04
2018-12-21T17:50:29.183Z,10.92
2018-12-21T17:55:25.628Z,10.79
2018-12-21T18:00:21.162Z,10.75
2018-12-21T18:05:17.488Z,10.59
2018-12-21T18:10:14.155Z,10.51
2018-12-21T18:15:09.796Z,10.41
2018-12-21T18:20:06.433Z,10.34
2018-12-21T18:25:02.979Z,10.34
2018-12-21T18:29:58.678Z,10.37
2018-12-21T18:34:55.524Z,10.38
2018-12-21T18:39:51.013Z,10.33
2018-12-21T18:44:46.811Z,10.31
2018-12-21T18:49:42.354Z,10.28
2018-12-21T18:54:38.489Z,10.26
2018-12-21T18:59:34.468Z,10.26
2018-12-21T19:04:30.977Z,10.33
2018-12-21T19:09:26.935Z,10.26
2018-12-21T19:14:23.638Z,10.34
2018-12-21T19:19:19.020Z,10.31
2018-12-21T19:24:15.235Z,10.30
2018-12-21T19:29:11.450Z,10.30
2018-12-21T19:34:08.146Z,10.30
2018-12-21T19:39:04.529Z,10.26
2018-12-21T19:44:00.382Z,10.37
2018-12-21T19:48:55.930Z,10.33
2018-12-21T19:53:51.706Z,10.31
2018-12-21T19:58:48.242Z,10.41
2018-12-21T20:03:43.592Z,10.41
2018-12-21T20:08:39.260Z,10.48
2018-12-21T20:13:35.241Z,10.59
2018-12-21T20:18:31.091Z,10.54
2018-12-21T20:23:27.056Z,10.67
2018-12-21T20:28:24.217Z,10.67
2018-12-21T20:33:19.866Z,10.57
2018-12-21T20:38:21.394Z,10.46
2018-12-21T20:43:14.906Z,10.44
2018-12-21T20:48:10.735Z,10.31
2018-12-21T20:53:07.676Z,10.37
2018-12-21T20:58:04.131Z,10.31
2018-12-21T21:02:59.721Z,10.16
2018-12-21T21:07:56.694Z,10.10
2018-12-21T21:12:52.368Z,10.15
2018-12-21T21:17:48.116Z,10.23
2018-12-21T21:22:43.664Z,10.19
2018-12-21T21:27:40.322Z,10.22
2018-12-21T21:32:35.868Z,10.19
2018-12-21T21:37:31.583Z,10.10
2018-12-21T21:42:27.451Z,10.09
2018-12-21T21:47:23.146Z,10.12
2018-12-21T21:52:19.999Z,10.10
2018-12-21T21:57:15.256Z,10.13
2018-12-21T22:02:10.942Z,10.05
2018-12-21T22:07:06.744Z,10.10
2018-12-21T22:12:04.079Z,10.05
2018-12-21T22:16:59.525Z,10.04
2018-12-21T22:21:55.718Z,10.04
2018-12-21T22:26:51.105Z," 9.91"
2018-12-21T22:31:47.153Z," 9.94"
2018-12-21T22:36:42.785Z," 9.84"
2018-12-21T22:41:38.578Z," 9.87"
2018-12-21T22:46:35.426Z," 9.91"
2018-12-21T22:51:30.926Z," 9.92"
2018-12-21T22:56:26.794Z," 9.89"
2018-12-21T23:01:22.492Z," 9.91"
2018-12-21T23:06:18.326Z," 9.89"
2018-12-21T23:11:14.317Z," 9.97"
2018-12-21T23:16:10.985Z,10.15
2018-12-21T23:21:07.731Z,10.10
2018-12-21T23:26:04.478Z,10.04
2018-12-21T23:31:00.010Z,10.07
2018-12-21T23:35:57.358Z," 9.99"
2018-12-21T23:40:53.963Z,10.04
2018-12-21T23:45:50.504Z,10.02
2018-12-21T23:50:46.427Z," 9.97"
2018-12-21T23:55:43.029Z," 9.98"
